sensor_id;sensor_type;location;lat;lon;timestamp;temperature;humidity
13458;DHT22;6801;53.018;11.560;2023-05-07T00:02:14;10.70;73.70
13458;DHT22;6801;53.018;11.560;2023-05-07T00:04:41;10.70;73.50
13458;DHT22;6801;53.018;11.560;2023-05-07T00:07:08;10.70;73.40
13458;DHT22;6801;53.018;11.560;2023-05-07T00:09:36;10.80;73.10
13458;DHT22;6801;53.018;11.560;2023-05-07T00:12:03;10.80;72.90
13458;DHT22;6801;53.018;11.560;2023-05-07T00:14:31;10.80;73.00
13458;DHT22;6801;53.018;11.560;2023-05-07T00:16:58;10.80;72.90
13458;DHT22;6801;53.018;11.560;2023-05-07T00:19:25;10.80;72.80
13458;DHT22;6801;53.018;11.560;2023-05-07T00:21:52;10.70;73.00
13458;DHT22;6801;53.018;11.560;2023-05-07T00:24:20;10.80;73.10
13458;DHT22;6801;53.018;11.560;2023-05-07T00:26:47;10.80;73.20
13458;DHT22;6801;53.018;11.560;2023-05-07T00:29:13;10.70;73.20
13458;DHT22;6801;53.018;11.560;2023-05-07T00:31:42;10.70;73.30
13458;DHT22;6801;53.018;11.560;2023-05-07T00:34:09;10.60;73.40
13458;DHT22;6801;53.018;11.560;2023-05-07T00:36:36;10.60;73.40
13458;DHT22;6801;53.018;11.560;2023-05-07T00:39:03;10.70;73.20
13458;DHT22;6801;53.018;11.560;2023-05-07T00:41:30;10.70;73.20
13458;DHT22;6801;53.018;11.560;2023-05-07T00:43:57;10.70;73.20
13458;DHT22;6801;53.018;11.560;2023-05-07T00:46:24;10.70;73.20
13458;DHT22;6801;53.018;11.560;2023-05-07T00:48:53;10.70;73.10
13458;DHT22;6801;53.018;11.560;2023-05-07T00:51:21;10.70;73.30
13458;DHT22;6801;53.018;11.560;2023-05-07T00:53:48;10.70;73.10
13458;DHT22;6801;53.018;11.560;2023-05-07T00:56:15;10.70;73.10
13458;DHT22;6801;53.018;11.560;2023-05-07T00:58:43;10.70;73.20
13458;DHT22;6801;53.018;11.560;2023-05-07T01:01:10;10.70;73.40
13458;DHT22;6801;53.018;11.560;2023-05-07T01:03:37;10.70;73.30
13458;DHT22;6801;53.018;11.560;2023-05-07T01:06:06;10.70;73.40
13458;DHT22;6801;53.018;11.560;2023-05-07T01:08:34;10.60;73.40
13458;DHT22;6801;53.018;11.560;2023-05-07T01:11:02;10.60;73.50
13458;DHT22;6801;53.018;11.560;2023-05-07T01:13:29;10.70;73.50
13458;DHT22;6801;53.018;11.560;2023-05-07T01:15:56;10.70;73.30
13458;DHT22;6801;53.018;11.560;2023-05-07T01:18:23;10.70;73.20
13458;DHT22;6801;53.018;11.560;2023-05-07T01:20:51;10.80;73.00
13458;DHT22;6801;53.018;11.560;2023-05-07T01:23:20;10.80;72.90
13458;DHT22;6801;53.018;11.560;2023-05-07T01:25:51;10.70;72.90
13458;DHT22;6801;53.018;11.560;2023-05-07T01:28:19;10.80;73.10
13458;DHT22;6801;53.018;11.560;2023-05-07T01:30:49;10.70;73.00
13458;DHT22;6801;53.018;11.560;2023-05-07T01:33:20;10.70;73.10
13458;DHT22;6801;53.018;11.560;2023-05-07T01:35:49;10.60;73.20
13458;DHT22;6801;53.018;11.560;2023-05-07T01:38:17;10.50;73.40
13458;DHT22;6801;53.018;11.560;2023-05-07T01:40:46;10.60;73.50
13458;DHT22;6801;53.018;11.560;2023-05-07T01:43:13;10.60;73.50
13458;DHT22;6801;53.018;11.560;2023-05-07T01:45:41;10.60;73.60
13458;DHT22;6801;53.018;11.560;2023-05-07T01:48:11;10.60;73.40
13458;DHT22;6801;53.018;11.560;2023-05-07T01:50:39;10.60;73.30
13458;DHT22;6801;53.018;11.560;2023-05-07T01:53:06;10.50;73.50
13458;DHT22;6801;53.018;11.560;2023-05-07T01:55:33;10.50;73.50
13458;DHT22;6801;53.018;11.560;2023-05-07T01:58:03;10.50;73.50
13458;DHT22;6801;53.018;11.560;2023-05-07T02:00:31;10.50;73.40
13458;DHT22;6801;53.018;11.560;2023-05-07T02:02:58;10.50;73.50
13458;DHT22;6801;53.018;11.560;2023-05-07T02:05:39;10.50;73.70
13458;DHT22;6801;53.018;11.560;2023-05-07T02:08:13;10.60;73.40
13458;DHT22;6801;53.018;11.560;2023-05-07T02:10:40;10.50;73.50
13458;DHT22;6801;53.018;11.560;2023-05-07T02:13:08;10.50;73.50
13458;DHT22;6801;53.018;11.560;2023-05-07T02:15:36;10.50;73.50
13458;DHT22;6801;53.018;11.560;2023-05-07T02:18:05;10.50;73.70
13458;DHT22;6801;53.018;11.560;2023-05-07T02:20:32;10.50;73.50
13458;DHT22;6801;53.018;11.560;2023-05-07T02:22:59;10.60;73.40
13458;DHT22;6801;53.018;11.560;2023-05-07T02:25:29;10.60;73.40
13458;DHT22;6801;53.018;11.560;2023-05-07T02:27:56;10.60;73.40
13458;DHT22;6801;53.018;11.560;2023-05-07T02:30:33;10.60;73.50
13458;DHT22;6801;53.018;11.560;2023-05-07T02:33:00;10.50;73.60
13458;DHT22;6801;53.018;11.560;2023-05-07T02:35:28;10.60;73.70
13458;DHT22;6801;53.018;11.560;2023-05-07T02:37:55;10.60;73.50
13458;DHT22;6801;53.018;11.560;2023-05-07T02:40:24;10.60;73.70
13458;DHT22;6801;53.018;11.560;2023-05-07T02:42:51;10.50;73.80
13458;DHT22;6801;53.018;11.560;2023-05-07T02:45:18;10.50;73.90
13458;DHT22;6801;53.018;11.560;2023-05-07T02:47:47;10.50;73.90
13458;DHT22;6801;53.018;11.560;2023-05-07T02:50:14;10.50;73.90
13458;DHT22;6801;53.018;11.560;2023-05-07T02:52:41;10.50;74.00
13458;DHT22;6801;53.018;11.560;2023-05-07T02:55:08;10.60;73.80
13458;DHT22;6801;53.018;11.560;2023-05-07T02:57:36;10.50;73.80
13458;DHT22;6801;53.018;11.560;2023-05-07T03:00:12;10.50;73.90
13458;DHT22;6801;53.018;11.560;2023-05-07T03:02:41;10.50;74.00
13458;DHT22;6801;53.018;11.560;2023-05-07T03:05:10;10.50;74.10
13458;DHT22;6801;53.018;11.560;2023-05-07T03:07:37;10.40;74.20
13458;DHT22;6801;53.018;11.560;2023-05-07T03:10:05;10.40;74.20
13458;DHT22;6801;53.018;11.560;2023-05-07T03:12:32;10.50;74.10
13458;DHT22;6801;53.018;11.560;2023-05-07T03:14:59;10.40;74.10
13458;DHT22;6801;53.018;11.560;2023-05-07T03:17:26;10.50;74.00
13458;DHT22;6801;53.018;11.560;2023-05-07T03:19:53;10.40;74.00
13458;DHT22;6801;53.018;11.560;2023-05-07T03:22:21;10.40;74.20
13458;DHT22;6801;53.018;11.560;2023-05-07T03:24:48;10.50;74.20
13458;DHT22;6801;53.018;11.560;2023-05-07T03:27:15;10.40;74.10
13458;DHT22;6801;53.018;11.560;2023-05-07T03:29:43;10.40;74.20
13458;DHT22;6801;53.018;11.560;2023-05-07T03:32:10;10.40;74.10
13458;DHT22;6801;53.018;11.560;2023-05-07T03:34:37;10.40;74.20
13458;DHT22;6801;53.018;11.560;2023-05-07T03:37:04;10.40;74.10
13458;DHT22;6801;53.018;11.560;2023-05-07T03:39:32;10.40;74.10
13458;DHT22;6801;53.018;11.560;2023-05-07T03:42:00;10.40;74.00
13458;DHT22;6801;53.018;11.560;2023-05-07T03:44:28;10.40;74.10
13458;DHT22;6801;53.018;11.560;2023-05-07T03:46:56;10.40;74.10
13458;DHT22;6801;53.018;11.560;2023-05-07T03:49:23;10.40;74.10
13458;DHT22;6801;53.018;11.560;2023-05-07T03:51:50;10.40;74.20
13458;DHT22;6801;53.018;11.560;2023-05-07T03:54:17;10.40;74.20
13458;DHT22;6801;53.018;11.560;2023-05-07T03:56:47;10.40;74.00
13458;DHT22;6801;53.018;11.560;2023-05-07T03:59:14;10.40;74.30
13458;DHT22;6801;53.018;11.560;2023-05-07T04:01:43;10.50;73.80
13458;DHT22;6801;53.018;11.560;2023-05-07T04:04:15;10.50;73.80
13458;DHT22;6801;53.018;11.560;2023-05-07T04:06:42;10.50;74.00
13458;DHT22;6801;53.018;11.560;2023-05-07T04:09:09;10.50;73.90
13458;DHT22;6801;53.018;11.560;2023-05-07T04:11:37;10.60;73.70
13458;DHT22;6801;53.018;11.560;2023-05-07T04:14:09;10.50;73.60
13458;DHT22;6801;53.018;11.560;2023-05-07T04:16:36;10.50;73.80
13458;DHT22;6801;53.018;11.560;2023-05-07T04:19:04;10.50;73.80
13458;DHT22;6801;53.018;11.560;2023-05-07T04:21:31;10.50;73.80
13458;DHT22;6801;53.018;11.560;2023-05-07T04:23:58;10.50;73.80
13458;DHT22;6801;53.018;11.560;2023-05-07T04:26:25;10.60;73.50
13458;DHT22;6801;53.018;11.560;2023-05-07T04:28:53;10.60;73.60
13458;DHT22;6801;53.018;11.560;2023-05-07T04:31:22;10.60;73.40
13458;DHT22;6801;53.018;11.560;2023-05-07T04:33:52;10.60;73.30
13458;DHT22;6801;53.018;11.560;2023-05-07T04:36:19;10.50;73.40
13458;DHT22;6801;53.018;11.560;2023-05-07T04:38:52;10.50;73.60
13458;DHT22;6801;53.018;11.560;2023-05-07T04:41:19;10.50;73.60
13458;DHT22;6801;53.018;11.560;2023-05-07T04:43:46;10.60;73.60
13458;DHT22;6801;53.018;11.560;2023-05-07T04:46:15;10.50;73.50
13458;DHT22;6801;53.018;11.560;2023-05-07T04:48:44;10.60;73.50
13458;DHT22;6801;53.018;11.560;2023-05-07T04:51:11;10.60;73.60
13458;DHT22;6801;53.018;11.560;2023-05-07T04:53:38;10.60;73.70
13458;DHT22;6801;53.018;11.560;2023-05-07T04:56:05;10.70;73.30
13458;DHT22;6801;53.018;11.560;2023-05-07T04:58:39;10.70;73.20
13458;DHT22;6801;53.018;11.560;2023-05-07T05:01:06;10.70;72.90
13458;DHT22;6801;53.018;11.560;2023-05-07T05:03:33;10.70;73.10
13458;DHT22;6801;53.018;11.560;2023-05-07T05:06:02;10.70;73.00
13458;DHT22;6801;53.018;11.560;2023-05-07T05:08:33;10.70;73.20
13458;DHT22;6801;53.018;11.560;2023-05-07T05:11:02;10.70;73.10
13458;DHT22;6801;53.018;11.560;2023-05-07T05:13:30;10.70;73.20
13458;DHT22;6801;53.018;11.560;2023-05-07T05:15:58;10.70;73.10
13458;DHT22;6801;53.018;11.560;2023-05-07T05:18:27;10.70;73.00
13458;DHT22;6801;53.018;11.560;2023-05-07T05:20:55;10.80;73.00
13458;DHT22;6801;53.018;11.560;2023-05-07T05:23:24;10.80;72.90
13458;DHT22;6801;53.018;11.560;2023-05-07T05:25:55;10.70;73.10
13458;DHT22;6801;53.018;11.560;2023-05-07T05:28:25;10.60;73.30
13458;DHT22;6801;53.018;11.560;2023-05-07T05:30:53;10.60;73.20
13458;DHT22;6801;53.018;11.560;2023-05-07T05:33:21;10.70;73.30
13458;DHT22;6801;53.018;11.560;2023-05-07T05:35:49;10.70;73.00
13458;DHT22;6801;53.018;11.560;2023-05-07T05:38:16;10.70;73.00
13458;DHT22;6801;53.018;11.560;2023-05-07T05:40:45;10.70;73.20
13458;DHT22;6801;53.018;11.560;2023-05-07T05:43:12;10.80;72.80
13458;DHT22;6801;53.018;11.560;2023-05-07T05:45:39;10.80;72.70
13458;DHT22;6801;53.018;11.560;2023-05-07T05:48:06;10.70;72.70
13458;DHT22;6801;53.018;11.560;2023-05-07T05:50:34;10.70;72.70
13458;DHT22;6801;53.018;11.560;2023-05-07T05:53:02;10.70;72.90
13458;DHT22;6801;53.018;11.560;2023-05-07T05:55:29;10.70;72.80
13458;DHT22;6801;53.018;11.560;2023-05-07T05:57:59;10.60;72.90
13458;DHT22;6801;53.018;11.560;2023-05-07T06:00:29;10.60;73.10
13458;DHT22;6801;53.018;11.560;2023-05-07T06:03:01;10.70;72.80
13458;DHT22;6801;53.018;11.560;2023-05-07T06:05:28;10.80;72.60
13458;DHT22;6801;53.018;11.560;2023-05-07T06:07:56;10.80;72.40
13458;DHT22;6801;53.018;11.560;2023-05-07T06:10:25;10.80;72.60
13458;DHT22;6801;53.018;11.560;2023-05-07T06:12:53;10.80;72.70
13458;DHT22;6801;53.018;11.560;2023-05-07T06:15:22;10.90;72.70
13458;DHT22;6801;53.018;11.560;2023-05-07T06:17:50;10.90;72.60
13458;DHT22;6801;53.018;11.560;2023-05-07T06:20:17;10.90;72.30
13458;DHT22;6801;53.018;11.560;2023-05-07T06:22:44;10.90;72.60
13458;DHT22;6801;53.018;11.560;2023-05-07T06:25:12;10.90;72.80
13458;DHT22;6801;53.018;11.560;2023-05-07T06:27:40;11.00;72.30
13458;DHT22;6801;53.018;11.560;2023-05-07T06:30:08;10.90;72.60
13458;DHT22;6801;53.018;11.560;2023-05-07T06:32:37;10.90;72.40
13458;DHT22;6801;53.018;11.560;2023-05-07T06:35:05;10.90;72.60
13458;DHT22;6801;53.018;11.560;2023-05-07T06:37:34;10.90;72.50
13458;DHT22;6801;53.018;11.560;2023-05-07T06:40:05;10.80;72.60
13458;DHT22;6801;53.018;11.560;2023-05-07T06:42:35;10.80;72.60
13458;DHT22;6801;53.018;11.560;2023-05-07T06:45:21;10.80;72.70
13458;DHT22;6801;53.018;11.560;2023-05-07T06:47:49;10.90;72.20
13458;DHT22;6801;53.018;11.560;2023-05-07T06:50:17;10.80;72.80
13458;DHT22;6801;53.018;11.560;2023-05-07T06:52:44;10.80;72.70
13458;DHT22;6801;53.018;11.560;2023-05-07T06:55:11;10.80;73.00
13458;DHT22;6801;53.018;11.560;2023-05-07T06:57:38;10.80;72.70
13458;DHT22;6801;53.018;11.560;2023-05-07T07:00:06;10.80;72.70
13458;DHT22;6801;53.018;11.560;2023-05-07T07:02:42;10.80;72.70
13458;DHT22;6801;53.018;11.560;2023-05-07T07:05:11;10.90;72.60
13458;DHT22;6801;53.018;11.560;2023-05-07T07:07:39;10.90;72.50
13458;DHT22;6801;53.018;11.560;2023-05-07T07:10:07;11.00;72.40
13458;DHT22;6801;53.018;11.560;2023-05-07T07:12:34;11.00;72.20
13458;DHT22;6801;53.018;11.560;2023-05-07T07:15:02;11.00;72.20
13458;DHT22;6801;53.018;11.560;2023-05-07T07:17:29;10.90;72.30
13458;DHT22;6801;53.018;11.560;2023-05-07T07:19:56;11.00;72.40
13458;DHT22;6801;53.018;11.560;2023-05-07T07:22:24;11.00;72.50
13458;DHT22;6801;53.018;11.560;2023-05-07T07:24:52;11.00;72.50
13458;DHT22;6801;53.018;11.560;2023-05-07T07:27:19;11.00;72.30
13458;DHT22;6801;53.018;11.560;2023-05-07T07:29:46;11.00;72.30
13458;DHT22;6801;53.018;11.560;2023-05-07T07:32:13;11.00;72.20
13458;DHT22;6801;53.018;11.560;2023-05-07T07:34:40;11.00;72.40
13458;DHT22;6801;53.018;11.560;2023-05-07T07:37:08;11.10;72.10
13458;DHT22;6801;53.018;11.560;2023-05-07T07:39:38;11.10;72.00
13458;DHT22;6801;53.018;11.560;2023-05-07T07:42:07;11.10;72.10
13458;DHT22;6801;53.018;11.560;2023-05-07T07:44:34;11.00;72.20
13458;DHT22;6801;53.018;11.560;2023-05-07T07:47:07;11.10;72.00
13458;DHT22;6801;53.018;11.560;2023-05-07T07:49:34;11.10;72.00
13458;DHT22;6801;53.018;11.560;2023-05-07T07:52:05;11.20;71.80
13458;DHT22;6801;53.018;11.560;2023-05-07T07:54:34;11.30;71.60
13458;DHT22;6801;53.018;11.560;2023-05-07T07:57:03;11.20;71.50
13458;DHT22;6801;53.018;11.560;2023-05-07T07:59:32;11.20;71.60
13458;DHT22;6801;53.018;11.560;2023-05-07T08:01:59;11.20;71.50
13458;DHT22;6801;53.018;11.560;2023-05-07T08:04:28;11.30;71.60
13458;DHT22;6801;53.018;11.560;2023-05-07T08:06:57;11.40;71.50
13458;DHT22;6801;53.018;11.560;2023-05-07T08:09:24;11.50;70.80
13458;DHT22;6801;53.018;11.560;2023-05-07T08:11:53;11.50;70.40
13458;DHT22;6801;53.018;11.560;2023-05-07T08:14:22;11.40;70.70
13458;DHT22;6801;53.018;11.560;2023-05-07T08:16:49;11.40;70.90
13458;DHT22;6801;53.018;11.560;2023-05-07T08:19:15;11.30;71.00
13458;DHT22;6801;53.018;11.560;2023-05-07T08:21:44;11.30;71.10
13458;DHT22;6801;53.018;11.560;2023-05-07T08:24:13;11.30;71.20
13458;DHT22;6801;53.018;11.560;2023-05-07T08:26:41;11.40;71.20
13458;DHT22;6801;53.018;11.560;2023-05-07T08:29:09;11.50;70.90
13458;DHT22;6801;53.018;11.560;2023-05-07T08:31:38;11.40;70.90
13458;DHT22;6801;53.018;11.560;2023-05-07T08:34:05;11.40;71.00
13458;DHT22;6801;53.018;11.560;2023-05-07T08:36:34;11.40;71.10
13458;DHT22;6801;53.018;11.560;2023-05-07T08:39:01;11.50;71.10
13458;DHT22;6801;53.018;11.560;2023-05-07T08:41:28;11.50;70.90
13458;DHT22;6801;53.018;11.560;2023-05-07T08:43:58;11.70;70.70
13458;DHT22;6801;53.018;11.560;2023-05-07T08:46:28;11.70;70.40
13458;DHT22;6801;53.018;11.560;2023-05-07T08:48:59;11.80;70.40
13458;DHT22;6801;53.018;11.560;2023-05-07T08:51:27;11.70;70.50
13458;DHT22;6801;53.018;11.560;2023-05-07T08:53:54;11.80;70.70
13458;DHT22;6801;53.018;11.560;2023-05-07T08:56:26;11.70;70.70
13458;DHT22;6801;53.018;11.560;2023-05-07T08:58:54;11.90;70.70
13458;DHT22;6801;53.018;11.560;2023-05-07T09:01:22;12.00;70.50
13458;DHT22;6801;53.018;11.560;2023-05-07T09:03:52;12.10;70.00
13458;DHT22;6801;53.018;11.560;2023-05-07T09:06:22;12.10;69.90
13458;DHT22;6801;53.018;11.560;2023-05-07T09:08:50;12.10;70.00
13458;DHT22;6801;53.018;11.560;2023-05-07T09:11:20;12.10;70.30
13458;DHT22;6801;53.018;11.560;2023-05-07T09:13:48;12.30;69.90
13458;DHT22;6801;53.018;11.560;2023-05-07T09:16:16;12.40;69.90
13458;DHT22;6801;53.018;11.560;2023-05-07T09:18:45;12.40;69.60
13458;DHT22;6801;53.018;11.560;2023-05-07T09:21:15;12.40;69.70
13458;DHT22;6801;53.018;11.560;2023-05-07T09:23:44;12.50;69.90
13458;DHT22;6801;53.018;11.560;2023-05-07T09:26:12;12.50;69.90
13458;DHT22;6801;53.018;11.560;2023-05-07T09:28:41;12.70;69.30
13458;DHT22;6801;53.018;11.560;2023-05-07T09:31:11;12.80;68.90
13458;DHT22;6801;53.018;11.560;2023-05-07T09:33:38;12.80;68.80
13458;DHT22;6801;53.018;11.560;2023-05-07T09:36:07;12.90;68.50
13458;DHT22;6801;53.018;11.560;2023-05-07T09:38:36;13.00;68.60
13458;DHT22;6801;53.018;11.560;2023-05-07T09:41:07;13.00;68.20
13458;DHT22;6801;53.018;11.560;2023-05-07T09:43:41;13.00;68.20
13458;DHT22;6801;53.018;11.560;2023-05-07T09:46:12;13.20;68.00
13458;DHT22;6801;53.018;11.560;2023-05-07T09:48:44;13.30;67.50
13458;DHT22;6801;53.018;11.560;2023-05-07T09:51:21;13.40;67.00
13458;DHT22;6801;53.018;11.560;2023-05-07T09:53:50;13.50;66.60
13458;DHT22;6801;53.018;11.560;2023-05-07T09:56:20;13.50;66.60
13458;DHT22;6801;53.018;11.560;2023-05-07T09:58:49;13.50;66.70
13458;DHT22;6801;53.018;11.560;2023-05-07T10:01:17;13.60;66.40
13458;DHT22;6801;53.018;11.560;2023-05-07T10:03:49;13.70;66.10
13458;DHT22;6801;53.018;11.560;2023-05-07T10:06:17;13.80;66.20
13458;DHT22;6801;53.018;11.560;2023-05-07T10:08:44;13.80;65.90
13458;DHT22;6801;53.018;11.560;2023-05-07T10:11:12;13.90;65.80
13458;DHT22;6801;53.018;11.560;2023-05-07T10:13:41;14.00;65.70
13458;DHT22;6801;53.018;11.560;2023-05-07T10:16:09;14.00;65.70
13458;DHT22;6801;53.018;11.560;2023-05-07T10:18:44;14.00;65.90
13458;DHT22;6801;53.018;11.560;2023-05-07T10:21:18;14.10;65.80
13458;DHT22;6801;53.018;11.560;2023-05-07T10:23:49;14.30;65.20
13458;DHT22;6801;53.018;11.560;2023-05-07T10:26:18;14.30;65.10
13458;DHT22;6801;53.018;11.560;2023-05-07T10:28:53;14.30;65.30
13458;DHT22;6801;53.018;11.560;2023-05-07T10:31:38;14.40;65.10
13458;DHT22;6801;53.018;11.560;2023-05-07T10:34:12;14.50;63.90
13458;DHT22;6801;53.018;11.560;2023-05-07T10:36:40;14.50;64.30
13458;DHT22;6801;53.018;11.560;2023-05-07T10:39:08;14.60;64.30
13458;DHT22;6801;53.018;11.560;2023-05-07T10:41:38;14.60;64.50
13458;DHT22;6801;53.018;11.560;2023-05-07T10:44:07;14.70;64.00
13458;DHT22;6801;53.018;11.560;2023-05-07T10:46:36;14.80;63.40
13458;DHT22;6801;53.018;11.560;2023-05-07T10:49:14;14.90;63.90
13458;DHT22;6801;53.018;11.560;2023-05-07T10:52:13;15.00;63.00
13458;DHT22;6801;53.018;11.560;2023-05-07T10:54:46;15.00;63.20
13458;DHT22;6801;53.018;11.560;2023-05-07T10:57:34;15.00;63.10
13458;DHT22;6801;53.018;11.560;2023-05-07T11:00:42;15.10;63.20
13458;DHT22;6801;53.018;11.560;2023-05-07T11:03:17;15.10;63.50
13458;DHT22;6801;53.018;11.560;2023-05-07T11:06:12;15.20;63.10
13458;DHT22;6801;53.018;11.560;2023-05-07T11:08:59;15.30;62.90
13458;DHT22;6801;53.018;11.560;2023-05-07T11:11:46;15.40;62.60
13458;DHT22;6801;53.018;11.560;2023-05-07T11:14:43;15.50;62.60
13458;DHT22;6801;53.018;11.560;2023-05-07T11:17:19;15.50;62.80
13458;DHT22;6801;53.018;11.560;2023-05-07T11:19:54;15.60;62.90
13458;DHT22;6801;53.018;11.560;2023-05-07T11:22:40;15.70;62.40
13458;DHT22;6801;53.018;11.560;2023-05-07T11:25:22;15.90;62.00
13458;DHT22;6801;53.018;11.560;2023-05-07T11:27:56;16.00;61.30
13458;DHT22;6801;53.018;11.560;2023-05-07T11:30:30;16.00;61.60
13458;DHT22;6801;53.018;11.560;2023-05-07T11:32:58;16.00;61.30
13458;DHT22;6801;53.018;11.560;2023-05-07T11:35:26;15.90;62.20
13458;DHT22;6801;53.018;11.560;2023-05-07T11:37:58;16.00;62.30
13458;DHT22;6801;53.018;11.560;2023-05-07T11:40:26;16.10;61.90
13458;DHT22;6801;53.018;11.560;2023-05-07T11:42:54;16.10;62.10
13458;DHT22;6801;53.018;11.560;2023-05-07T11:45:23;16.20;61.80
13458;DHT22;6801;53.018;11.560;2023-05-07T11:47:51;16.30;61.80
13458;DHT22;6801;53.018;11.560;2023-05-07T11:50:19;16.40;61.50
13458;DHT22;6801;53.018;11.560;2023-05-07T11:52:51;16.40;61.50
13458;DHT22;6801;53.018;11.560;2023-05-07T11:55:18;16.50;61.60
13458;DHT22;6801;53.018;11.560;2023-05-07T11:57:45;16.60;60.80
13458;DHT22;6801;53.018;11.560;2023-05-07T12:00:16;16.70;61.20
13458;DHT22;6801;53.018;11.560;2023-05-07T12:02:45;16.80;60.10
13458;DHT22;6801;53.018;11.560;2023-05-07T12:05:12;17.00;59.30
13458;DHT22;6801;53.018;11.560;2023-05-07T12:07:40;17.00;59.60
13458;DHT22;6801;53.018;11.560;2023-05-07T12:10:08;17.00;59.60
13458;DHT22;6801;53.018;11.560;2023-05-07T12:12:38;17.10;59.60
13458;DHT22;6801;53.018;11.560;2023-05-07T12:15:06;17.20;59.40
13458;DHT22;6801;53.018;11.560;2023-05-07T12:17:33;17.30;59.50
13458;DHT22;6801;53.018;11.560;2023-05-07T12:20:01;17.40;59.20
13458;DHT22;6801;53.018;11.560;2023-05-07T12:22:28;17.50;59.10
13458;DHT22;6801;53.018;11.560;2023-05-07T12:24:58;17.50;59.10
13458;DHT22;6801;53.018;11.560;2023-05-07T12:27:26;17.60;59.10
13458;DHT22;6801;53.018;11.560;2023-05-07T12:29:53;17.80;59.00
13458;DHT22;6801;53.018;11.560;2023-05-07T12:32:21;17.80;58.20
13458;DHT22;6801;53.018;11.560;2023-05-07T12:34:50;18.00;57.70
13458;DHT22;6801;53.018;11.560;2023-05-07T12:37:23;18.00;57.40
13458;DHT22;6801;53.018;11.560;2023-05-07T12:40:05;18.30;56.70
13458;DHT22;6801;53.018;11.560;2023-05-07T12:42:35;18.30;56.40
13458;DHT22;6801;53.018;11.560;2023-05-07T12:45:08;18.40;56.70
13458;DHT22;6801;53.018;11.560;2023-05-07T12:47:35;18.50;55.20
13458;DHT22;6801;53.018;11.560;2023-05-07T12:50:05;18.50;55.10
13458;DHT22;6801;53.018;11.560;2023-05-07T12:52:33;18.50;55.50
13458;DHT22;6801;53.018;11.560;2023-05-07T12:55:06;18.60;55.30
13458;DHT22;6801;53.018;11.560;2023-05-07T12:57:38;18.70;54.90
13458;DHT22;6801;53.018;11.560;2023-05-07T13:00:06;18.70;55.40
13458;DHT22;6801;53.018;11.560;2023-05-07T13:02:37;18.80;55.70
13458;DHT22;6801;53.018;11.560;2023-05-07T13:05:05;18.80;55.30
13458;DHT22;6801;53.018;11.560;2023-05-07T13:07:32;19.00;53.90
13458;DHT22;6801;53.018;11.560;2023-05-07T13:09:59;19.00;54.00
13458;DHT22;6801;53.018;11.560;2023-05-07T13:12:27;19.00;53.90
13458;DHT22;6801;53.018;11.560;2023-05-07T13:14:54;19.00;54.10
13458;DHT22;6801;53.018;11.560;2023-05-07T13:17:21;19.00;54.30
13458;DHT22;6801;53.018;11.560;2023-05-07T13:19:48;19.10;54.10
13458;DHT22;6801;53.018;11.560;2023-05-07T13:22:15;19.20;52.60
13458;DHT22;6801;53.018;11.560;2023-05-07T13:24:42;19.20;52.70
13458;DHT22;6801;53.018;11.560;2023-05-07T13:27:09;19.30;51.00
13458;DHT22;6801;53.018;11.560;2023-05-07T13:29:37;19.30;51.70
13458;DHT22;6801;53.018;11.560;2023-05-07T13:32:04;19.30;51.50
13458;DHT22;6801;53.018;11.560;2023-05-07T13:34:31;19.30;51.80
13458;DHT22;6801;53.018;11.560;2023-05-07T13:36:58;19.30;52.20
13458;DHT22;6801;53.018;11.560;2023-05-07T13:39:25;19.30;52.40
13458;DHT22;6801;53.018;11.560;2023-05-07T13:41:52;19.30;52.50
13458;DHT22;6801;53.018;11.560;2023-05-07T13:44:19;19.30;53.40
13458;DHT22;6801;53.018;11.560;2023-05-07T13:46:47;19.50;51.70
13458;DHT22;6801;53.018;11.560;2023-05-07T13:49:14;19.50;52.00
13458;DHT22;6801;53.018;11.560;2023-05-07T13:51:41;19.60;51.50
13458;DHT22;6801;53.018;11.560;2023-05-07T13:54:08;19.50;52.00
13458;DHT22;6801;53.018;11.560;2023-05-07T13:56:35;19.50;52.90
13458;DHT22;6801;53.018;11.560;2023-05-07T13:59:02;19.50;52.90
13458;DHT22;6801;53.018;11.560;2023-05-07T14:01:29;19.60;52.00
13458;DHT22;6801;53.018;11.560;2023-05-07T14:03:57;19.70;50.90
13458;DHT22;6801;53.018;11.560;2023-05-07T14:06:25;19.70;50.90
13458;DHT22;6801;53.018;11.560;2023-05-07T14:08:52;19.80;50.60
13458;DHT22;6801;53.018;11.560;2023-05-07T14:11:19;19.90;50.40
13458;DHT22;6801;53.018;11.560;2023-05-07T14:13:46;19.80;49.90
13458;DHT22;6801;53.018;11.560;2023-05-07T14:16:13;19.90;50.00
13458;DHT22;6801;53.018;11.560;2023-05-07T14:18:40;19.90;49.50
13458;DHT22;6801;53.018;11.560;2023-05-07T14:21:08;19.80;50.00
13458;DHT22;6801;53.018;11.560;2023-05-07T14:23:36;19.80;50.70
13458;DHT22;6801;53.018;11.560;2023-05-07T14:26:03;19.90;50.10
13458;DHT22;6801;53.018;11.560;2023-05-07T14:28:30;19.90;50.10
13458;DHT22;6801;53.018;11.560;2023-05-07T14:30:57;19.90;49.50
13458;DHT22;6801;53.018;11.560;2023-05-07T14:33:24;19.70;49.90
13458;DHT22;6801;53.018;11.560;2023-05-07T14:35:50;19.70;51.20
13458;DHT22;6801;53.018;11.560;2023-05-07T14:38:19;19.70;50.80
13458;DHT22;6801;53.018;11.560;2023-05-07T14:40:46;19.70;49.20
13458;DHT22;6801;53.018;11.560;2023-05-07T14:43:13;19.60;49.40
13458;DHT22;6801;53.018;11.560;2023-05-07T14:45:40;19.60;49.90
13458;DHT22;6801;53.018;11.560;2023-05-07T14:48:06;19.50;49.30
13458;DHT22;6801;53.018;11.560;2023-05-07T14:50:34;19.50;49.50
13458;DHT22;6801;53.018;11.560;2023-05-07T14:53:01;19.30;50.20
13458;DHT22;6801;53.018;11.560;2023-05-07T14:55:30;19.30;50.70
13458;DHT22;6801;53.018;11.560;2023-05-07T14:57:57;19.30;49.70
13458;DHT22;6801;53.018;11.560;2023-05-07T15:00:24;19.40;48.00
13458;DHT22;6801;53.018;11.560;2023-05-07T15:02:51;19.30;49.10
13458;DHT22;6801;53.018;11.560;2023-05-07T15:05:18;19.30;48.90
13458;DHT22;6801;53.018;11.560;2023-05-07T15:07:45;19.20;49.10
13458;DHT22;6801;53.018;11.560;2023-05-07T15:10:12;19.30;49.00
13458;DHT22;6801;53.018;11.560;2023-05-07T15:12:40;19.30;48.60
13458;DHT22;6801;53.018;11.560;2023-05-07T15:15:09;19.40;49.10
13458;DHT22;6801;53.018;11.560;2023-05-07T15:17:36;19.40;48.50
13458;DHT22;6801;53.018;11.560;2023-05-07T15:20:03;19.40;48.20
13458;DHT22;6801;53.018;11.560;2023-05-07T15:22:31;19.30;48.40
13458;DHT22;6801;53.018;11.560;2023-05-07T15:24:58;19.30;49.00
13458;DHT22;6801;53.018;11.560;2023-05-07T15:27:24;19.20;48.40
13458;DHT22;6801;53.018;11.560;2023-05-07T15:29:53;19.20;48.70
13458;DHT22;6801;53.018;11.560;2023-05-07T15:32:20;19.20;48.70
13458;DHT22;6801;53.018;11.560;2023-05-07T15:34:47;19.10;48.80
13458;DHT22;6801;53.018;11.560;2023-05-07T15:37:14;19.20;48.30
13458;DHT22;6801;53.018;11.560;2023-05-07T15:39:41;19.20;48.10
13458;DHT22;6801;53.018;11.560;2023-05-07T15:42:07;19.20;47.90